Home > Products > Valid Products > MTR

000
SAUS46 KPQR 302053
MTRREO
METAR KREO 302052Z AUTO VRB05KT 33/03 A3015 RMK AO1 SLP160 T03330028
58011





000
SAUS46 KPQR 301953
MTRREO
METAR KREO 301952Z AUTO 02008G16KT 340V070 34/04 A3016 RMK AO1
SLP163 T03390039





000
SAUS46 KPQR 301853
MTRREO
METAR KREO 301852Z AUTO 32/04 A3017 RMK AO1 SLP169 T03170044





000
SAUS46 KPQR 301753
MTRREO
METAR KREO 301752Z AUTO VRB03KT 31/06 A3018 RMK AO1 SLP174 T03060056
10306 20150 58003





000
SAUS46 KPQR 301653
MTRREO
METAR KREO 301652Z AUTO 32004KT 30/05 A3019 RMK AO1 SLP175 T03000050





000
SAUS46 KPQR 301553
MTRREO
METAR KREO 301552Z AUTO 26004KT 27/07 A3019 RMK AO1 SLP176 T02670067





000
SAUS46 KPQR 301453
MTRREO
METAR KREO 301452Z AUTO 00000KT 24/07 A3019 RMK AO1 SLP178 T02440072
51008





000
SAUS46 KPQR 301353
MTRREO
METAR KREO 301352Z AUTO 28003KT 20/07 A3019 RMK AO1 SLP181 T02000072





000
SAUS46 KPQR 301253
MTRREO
METAR KREO 301252Z AUTO 13007KT 16/07 A3018 RMK AO1 SLP184 T01610067





000
SAUS46 KPQR 301157
MTRREO
METAR KREO 301152Z AUTO 17008KT 16/06 A3017 RMK AO1 SLP181 T01610061
10222 20150 58006





000
SAUS46 KPQR 301053
MTRREO
METAR KREO 301052Z AUTO 00000KT 16/08 A3018 RMK AO1 SLP180 T01560078





000
SAUS46 KPQR 300953
MTRREO
METAR KREO 300952Z AUTO 13009KT 19/08 A3018 RMK AO1 SLP170 T01940078





000
SAUS46 KPQR 300853
MTRREO
METAR KREO 300852Z AUTO 14003KT 20/08 A3019 RMK AO1 SLP172 T02000078
50006





000
SAUS46 KPQR 300753
MTRREO
METAR KREO 300752Z AUTO 32006KT 21/09 A3019 RMK AO1 SLP174 T02060089
403500172





000
SAUS46 KPQR 300653
MTRREO
METAR KREO 300652Z AUTO 17005KT 21/09 A3018 RMK AO1 SLP172 T02110094





000
SAUS46 KPQR 300553
MTRREO
METAR KREO 300552Z AUTO 19007KT 22/09 A3017 RMK AO1 SLP168 T02170094
10294 20217 50006





000
SAUS46 KPQR 300453
MTRREO
METAR KREO 300452Z AUTO 19008KT 23/08 A3018 RMK AO1 SLP175 T02330078





000
SAUS46 KPQR 300353
MTRREO
METAR KREO 300352Z AUTO 00000KT 26/06 A3016 RMK AO1 SLP165 T02610061





000
SAUS46 KPQR 300253
MTRREO
METAR KREO 300252Z AUTO 32010G16KT 28/07 A3015 RMK AO1 SLP161
T02780067 56015





000
SAUS46 KPQR 300153
MTRREO
METAR KREO 300152Z AUTO 36004KT 29/07 A3016 RMK AO1 SLP171 T02890067





000
SAUS46 KPQR 300053
MTRREO
METAR KREO 300052Z AUTO 11011KT 27/09 A3016 RMK AO1 PK WND
14029/0014 SLP177 T02670089





000
SAUS46 KPQR 292353
MTRREO
METAR KREO 292352Z AUTO 16015KT 26/09 A3020 RMK AO1 PK WND
11028/2255 SLP189 T02610094 10350 20261 53029





000
SAUS46 KPQR 292253
MTRREO
METAR KREO 292252Z AUTO 12024G30KT 29/07 A3016 RMK AO1 PK WND
10032/2231 WSHFT 2221 SLP168 T02940072





000
SAUS46 KPQR 292240
MTRREO
SPECI KREO 292238Z AUTO 10023G32KT 30/07 A3014 RMK AO1 PK WND
10032/2231 WSHFT 2221 T03000067





000
SAUS46 KPQR 292153
MTRREO
METAR KREO 292152Z AUTO 02013KT 35/02 A3010 RMK AO1 SLP143 T03500017





000
SAUS46 KPQR 292053
MTRREO
METAR KREO 292052Z AUTO 36009G15KT 35/04 A3010 RMK AO1 SLP143
T03500039 58016





000
SAUS46 KPQR 291953
MTRREO
METAR KREO 291952Z AUTO 34/05 A3012 RMK AO1 SLP150 T03440050





000
SAUS46 KPQR 291853
MTRREO
METAR KREO 291852Z AUTO VRB04KT 32/06 A3015 RMK AO1 SLP156 T03220061





000
SAUS46 KPQR 291753
MTRREO
METAR KREO 291752Z AUTO 31/07 A3015 RMK AO1 SLP159 T03110067 10311
20172 50000





000
SAUS46 KPQR 291653
MTRREO
METAR KREO 291652Z AUTO 36005KT 28/07 A3016 RMK AO1 SLP162 T02780072





000
SAUS46 KPQR 291553
MTRREO
METAR KREO 291552Z AUTO 02005KT 28/05 A3016 RMK AO1 SLP160 T02780050





000
SAUS46 KPQR 291453
MTRREO
METAR KREO 291452Z AUTO 05003KT 25/05 A3015 RMK AO1 SLP159 T02500050
50006





000
SAUS46 KPQR 291353
MTRREO
METAR KREO 291352Z AUTO 16006KT 19/06 A3016 RMK AO1 SLP164 T01890056





000
SAUS46 KPQR 291253
MTRREO
METAR KREO 291252Z AUTO 09004KT 17/04 A3014 RMK AO1 SLP161 T01720044





000
SAUS46 KPQR 291153
MTRREO
METAR KREO 291152Z AUTO 13008KT 18/05 A3013 RMK AO1 SLP156 T01780050
10289 20178 53006





000
SAUS46 KPQR 291054
MTRREO
METAR KREO 291052Z AUTO 00000KT 21/06 A3012 RMK AO1 SLP151 T02060061





000
SAUS46 KPQR 290954
MTRREO
METAR KREO 290952Z AUTO 03007KT 21/06 A3012 RMK AO1 SLP149 T02110061





000
SAUS46 KPQR 290853
MTRREO
METAR KREO 290852Z AUTO 06005KT 21/06 A3011 RMK AO1 SLP148 T02060056
50003





000
SAUS46 KPQR 290753
MTRREO
METAR KREO 290752Z AUTO 04006KT 22/06 A3012 RMK AO1 SLP149 T02170056
403610156





000
SAUS46 KPQR 290653
MTRREO
METAR KREO 290652Z AUTO 04006KT 26/06 A3011 RMK AO1 SLP144 T02560061





000
SAUS46 KPQR 290553
MTRREO
METAR KREO 290552Z AUTO 25004KT 26/06 A3011 RMK AO1 SLP143 T02610061
10361 20261 53009





000
SAUS46 KPQR 290453
MTRREO
METAR KREO 290452Z AUTO 13014KT 28/06 A3010 RMK AO1 SLP139 T02780061





000
SAUS46 KPQR 290353
MTRREO
METAR KREO 290352Z AUTO 11013KT 29/07 A3008 RMK AO1 SLP135 T02890067





000
SAUS46 KPQR 290253
MTRREO
METAR KREO 290252Z AUTO 09016G22KT 32/06 A3008 RMK AO1 SLP132
T03170056 55002





000
SAUS46 KPQR 290153
MTRREO
METAR KREO 290152Z AUTO 01006KT 34/M01 A3007 RMK AO1 SLP132
T03441011





000
SAUS46 KPQR 290053
MTRREO
METAR KREO 290052Z AUTO 33008KT 35/M01 A3007 RMK AO1 SLP135
T03501006





000
SAUS46 KPQR 282353
MTRREO
METAR KREO 282352Z AUTO 36/00 A3008 RMK AO1 SLP140 T03560000 10356
20300 58012





000
SAUS46 KPQR 282253
MTRREO
METAR KREO 282252Z AUTO VRB03KT 35/00 A3010 RMK AO1 SLP142 T03500000





000
SAUS46 KPQR 282153
MTRREO
METAR KREO 282152Z AUTO 33006KT 34/01 A3012 RMK AO1 SLP148 T03440006





000
SAUS46 KPQR 282053
MTRREO
METAR KREO 282052Z AUTO 36009KT 35/01 A3012 RMK AO1 SLP148 T03500006
58011





000
SAUS46 KPQR 281953
MTRREO
METAR KREO 281952Z AUTO 31010G14KT 34/00 A3014 RMK AO1 SLP156
T03390000





000
SAUS46 KPQR 281853
MTRREO
METAR KREO 281852Z AUTO 01006KT 31/01 A3016 RMK AO1 SLP164 T03110011





000
SAUS46 KPQR 281753
MTRREO
METAR KREO 281752Z AUTO 04007KT 30/02 A3016 RMK AO1 SLP160 T03000017
10306 20156 53001





000
SAUS46 KPQR 281653
MTRREO
METAR KREO 281652Z AUTO 36007KT 29/02 A3016 RMK AO1 SLP158 T02940022





000
SAUS46 KPQR 281553
MTRREO
METAR KREO 281552Z AUTO 34007KT 29/02 A3016 RMK AO1 SLP156 T02890017





000
SAUS46 KPQR 281453
MTRREO
METAR KREO 281452Z AUTO 23003KT 26/01 A3016 RMK AO1 SLP158 T02560011
51009





000
SAUS46 KPQR 281353
MTRREO
METAR KREO 281352Z AUTO 00000KT 19/01 A3015 RMK AO1 SLP161 T01940006





000
SAUS46 KPQR 281253
MTRREO
METAR KREO 281252Z AUTO 00000KT 17/M01 A3013 RMK AO1 SLP158
T01671006





000
SAUS46 KPQR 281153
MTRREO
METAR KREO 281152Z AUTO 15004KT 17/M01 A3013 RMK AO1 SLP151
T01671006 10278 20167 53004





000
SAUS46 KPQR 281053
MTRREO
METAR KREO 281052Z AUTO 14004KT 19/M01 A3012 RMK AO1 SLP149
T01891006





000
SAUS46 KPQR 280953
MTRREO
METAR KREO 280952Z AUTO 00000KT 23/00 A3011 RMK AO1 SLP144 T02280000





000
SAUS46 KPQR 280853
MTRREO
METAR KREO 280852Z AUTO 17007KT 23/00 A3011 RMK AO1 SLP143 T02280000
51008





000
SAUS46 KPQR 280753
MTRREO
METAR KREO 280752Z AUTO 17009KT 22/M03 A3011 RMK AO1 SLP146
T02171033 403890144





000
SAUS46 KPQR 280653
MTRREO
METAR KREO 280652Z AUTO 00000KT 24/M02 A3009 RMK AO1 SLP137
T02441022





000
SAUS46 KPQR 280553
MTRREO
METAR KREO 280552Z AUTO 29006KT 28/M02 A3008 RMK AO1 SLP133
T02781022 10389 20278 51010





000
SAUS46 KPQR 280453
MTRREO
METAR KREO 280452Z AUTO 35006KT 29/M04 A3007 RMK AO1 SLP132
T02891044





000
SAUS46 KPQR 280353
MTRREO
METAR KREO 280352Z AUTO 36010KT 32/M04 A3007 RMK AO1 SLP130
T03171044





000
SAUS46 KPQR 280253
MTRREO
METAR KREO 280252Z AUTO 03013G20KT 330V060 34/M05 A3005 RMK AO1
SLP125 T03391050 53001





000
SAUS46 KPQR 280153
MTRREO
METAR KREO 280152Z AUTO VRB05KT 36/M06 A3004 RMK AO1 SLP124
T03561056





000
SAUS46 KPQR 280053
MTRREO
METAR KREO 280052Z AUTO 00000KT 36/M06 A3004 RMK AO1 SLP127
T03561061





000
SAUS46 KPQR 272353
MTRREO
METAR KREO 272352Z AUTO VRB05KT 38/M06 A3005 RMK AO1 SLP126
T03831061 10383 20306 56019





000
SAUS46 KPQR 272253
MTRREO
METAR KREO 272252Z AUTO VRB05KT 37/M06 A3006 RMK AO1 SLP131
T03671061





000
SAUS46 KPQR 272153
MTRREO
METAR KREO 272152Z AUTO VRB06KT 37/M06 A3009 RMK AO1 SLP140
T03721061





    US Dept of Commerce
    National Oceanic and Atmospheric Administration
    National Weather Service
    1325 East West Highway
    Silver Spring, MD 20910
    Page Author: NWS Internet Services Team
Disclaimer
Information Quality
Credits
Glossary
Privacy Policy
Freedom of Information Act (FOIA)
About Us
Career Opportunities